Time;durP1;ratioP1;P1;durP2;ratioP2;P2;SDS_P1;SDS_P2;PMS_P1;PMS_P2;Temp;Humidity;BMP_temperature;BMP_pressure;BME280_temperature;BME280_humidity;BME280_pressure;Samples;Min_cycle;Max_cycle;Signal;HPM_P1;HPM_P2
2022/10/01 00:01:39;;;;;;;38.60;20.20;;;;;;;;;;5028556;28;20056;-75
2022/10/01 00:04:04;;;;;;;36.58;21.13;;;;;;;;;;5028277;28;20114;-75
2022/10/01 00:06:30;;;;;;;34.53;18.83;;;;;;;;;;5011750;28;20068;-75
2022/10/01 00:08:57;;;;;;;40.95;20.20;;;;;;;;;;5027666;28;20033;-75
2022/10/01 00:11:25;;;;;;;37.80;19.38;;;;;;;;;;5029632;28;20037;-75
2022/10/01 00:13:51;;;;;;;38.95;19.98;;;;;;;;;;5029392;28;20125;-76
2022/10/01 00:16:20;;;;;;;38.45;19.73;;;;;;;;;;5027482;28;20057;-75
2022/10/01 00:18:46;;;;;;;33.90;18.58;;;;;;;;;;5029467;28;20029;-76
2022/10/01 00:21:18;;;;;;;38.65;19.85;;;;;;;;;;5011090;28;20091;-75
2022/10/01 00:23:44;;;;;;;38.65;19.65;;;;;;;;;;5028176;28;20021;-76
2022/10/01 00:26:15;;;;;;;33.88;18.20;;;;;;;;;;5048503;28;20037;-76
2022/10/01 00:28:42;;;;;;;37.10;19.42;;;;;;;;;;5049727;28;20033;-76
2022/10/01 00:31:09;;;;;;;34.92;18.27;;;;;;;;;;5048150;28;20025;-74
2022/10/01 00:33:35;;;;;;;29.05;16.98;;;;;;;;;;5047670;28;20025;-74
2022/10/01 00:36:02;;;;;;;33.25;18.02;;;;;;;;;;5047532;28;20075;-74
2022/10/01 00:38:28;;;;;;;29.50;16.73;;;;;;;;;;5031044;28;20107;-75
2022/10/01 00:40:54;;;;;;;32.55;17.05;;;;;;;;;;5048876;28;20132;-75
2022/10/01 00:43:28;;;;;;;35.60;16.98;;;;;;;;;;5047552;28;20024;-75
2022/10/01 00:45:58;;;;;;;30.10;16.33;;;;;;;;;;5049414;28;20497;-75
2022/10/01 00:48:25;;;;;;;33.53;17.87;;;;;;;;;;5049400;28;20025;-75
2022/10/01 00:50:51;;;;;;;33.53;16.93;;;;;;;;;;5049034;28;20128;-75
2022/10/01 00:53:19;;;;;;;32.50;17.52;;;;;;;;;;5051345;28;20507;-74
2022/10/01 00:55:54;;;;;;;27.70;16.52;;;;;;;;;;5052854;28;20017;-75
2022/10/01 00:58:20;;;;;;;34.05;17.25;;;;;;;;;;5051319;28;20029;-75
2022/10/01 01:00:47;;;;;;;38.45;17.23;;;;;;;;;;5051251;28;20373;-75
2022/10/01 01:03:13;;;;;;;32.70;17.30;;;;;;;;;;5050911;28;20413;-74
2022/10/01 01:05:39;;;;;;;32.88;17.60;;;;;;;;;;5052421;28;20025;-76
2022/10/01 01:08:05;;;;;;;31.73;17.15;;;;;;;;;;5050882;28;20020;-76
2022/10/01 01:11:03;;;;;;;32.92;16.58;;;;;;;;;;5050966;28;20079;-76
2022/10/01 01:13:41;;;;;;;31.83;16.70;;;;;;;;;;5004188;28;20040;-75
2022/10/01 01:16:40;;;;;;;26.02;15.98;;;;;;;;;;5034690;28;20048;-75
2022/10/01 01:19:26;;;;;;;28.70;16.00;;;;;;;;;;5029499;28;20037;-74
2022/10/01 01:22:01;;;;;;;31.00;17.10;;;;;;;;;;5050528;28;20033;-74
2022/10/01 01:24:49;;;;;;;31.73;16.63;;;;;;;;;;5045043;28;20047;-74
2022/10/01 01:27:24;;;;;;;26.23;16.20;;;;;;;;;;5049224;28;20057;-75
2022/10/01 01:30:11;;;;;;;24.10;14.27;;;;;;;;;;5050260;28;20081;-74
2022/10/01 01:32:58;;;;;;;28.93;15.83;;;;;;;;;;5050542;28;20114;-74
2022/10/01 01:35:31;;;;;;;33.27;16.87;;;;;;;;;;5050585;28;20025;-75
2022/10/01 01:38:00;;;;;;;26.57;14.77;;;;;;;;;;5051028;28;20075;-74
2022/10/01 01:40:29;;;;;;;29.27;16.70;;;;;;;;;;5052034;28;20099;-74
2022/10/01 01:42:56;;;;;;;33.87;17.17;;;;;;;;;;5050523;28;20499;-74
2022/10/01 01:45:27;;;;;;;28.87;15.57;;;;;;;;;;5050166;28;20060;-75
2022/10/01 01:47:54;;;;;;;26.80;14.87;;;;;;;;;;5050339;28;20032;-74
2022/10/01 01:50:24;;;;;;;32.07;15.87;;;;;;;;;;5049803;28;20082;-74
2022/10/01 01:52:53;;;;;;;32.20;15.60;;;;;;;;;;5050635;28;20346;-74
2022/10/01 01:55:23;;;;;;;26.80;15.53;;;;;;;;;;5033821;28;20032;-75
2022/10/01 01:57:49;;;;;;;28.23;15.67;;;;;;;;;;5050064;28;20094;-74
2022/10/01 02:00:15;;;;;;;28.13;16.10;;;;;;;;;;5051389;28;20111;-74
2022/10/01 02:02:47;;;;;;;31.10;15.60;;;;;;;;;;5049671;28;20438;-75
2022/10/01 02:05:17;;;;;;;27.50;15.50;;;;;;;;;;5050234;28;20048;-74
2022/10/01 02:08:04;;;;;;;23.27;14.60;;;;;;;;;;5051618;28;20495;-74
2022/10/01 02:10:49;;;;;;;31.33;16.00;;;;;;;;;;5051444;28;20032;-74
2022/10/01 02:13:46;;;;;;;23.10;14.20;;;;;;;;;;5049368;28;20036;-75
2022/10/01 02:16:41;;;;;;;23.70;15.17;;;;;;;;;;5046641;28;20472;-74
2022/10/01 02:19:43;;;;;;;26.13;15.07;;;;;;;;;;5033636;28;20029;-75
2022/10/01 02:22:24;;;;;;;27.13;14.70;;;;;;;;;;5033571;28;20036;-75
2022/10/01 02:24:58;;;;;;;25.25;13.52;;;;;;;;;;5040976;28;20032;-75
2022/10/01 02:27:23;;;;;;;27.60;17.30;;;;;;;;;;5029163;28;20064;-75
2022/10/01 02:29:49;;;;;;;23.90;14.07;;;;;;;;;;5029518;28;20082;-75
2022/10/01 02:32:17;;;;;;;30.10;14.43;;;;;;;;;;5029181;28;20049;-75
2022/10/01 02:34:44;;;;;;;29.27;15.07;;;;;;;;;;5028909;28;20032;-75
2022/10/01 02:37:10;;;;;;;31.20;14.33;;;;;;;;;;5030550;28;20362;-75
2022/10/01 02:39:40;;;;;;;22.97;14.60;;;;;;;;;;5029433;28;20036;-75
2022/10/01 02:42:08;;;;;;;31.67;14.47;;;;;;;;;;5030837;28;20033;-74
2022/10/01 02:44:39;;;;;;;27.83;14.13;;;;;;;;;;5030842;28;20025;-74
2022/10/01 02:47:06;;;;;;;24.20;13.73;;;;;;;;;;5031123;28;20033;-74
2022/10/01 02:49:34;;;;;;;23.97;13.70;;;;;;;;;;5030861;28;20033;-75
2022/10/01 02:52:08;;;;;;;28.47;14.70;;;;;;;;;;5028543;28;20210;-74
2022/10/01 02:55:04;;;;;;;22.70;14.02;;;;;;;;;;5028979;28;20033;-74
2022/10/01 02:57:31;;;;;;;24.80;14.57;;;;;;;;;;5012472;28;20499;-74
2022/10/01 03:00:05;;;;;;;23.90;14.00;;;;;;;;;;5029093;28;20389;-74
2022/10/01 03:02:31;;;;;;;26.77;14.25;;;;;;;;;;5030158;28;20355;-75
2022/10/01 03:04:58;;;;;;;26.50;14.65;;;;;;;;;;5030357;28;20374;-74
2022/10/01 03:07:29;;;;;;;23.20;12.85;;;;;;;;;;5028928;28;20082;-75
2022/10/01 03:09:55;;;;;;;26.55;14.18;;;;;;;;;;5013258;28;20056;-75
2022/10/01 03:12:21;;;;;;;24.43;13.63;;;;;;;;;;5029545;28;20346;-76
2022/10/01 03:14:47;;;;;;;23.42;12.68;;;;;;;;;;5028506;28;20545;-75
2022/10/01 03:17:13;;;;;;;27.77;14.20;;;;;;;;;;5029098;28;20126;-76
2022/10/01 03:19:39;;;;;;;21.25;13.68;;;;;;;;;;5027919;28;20059;-75
2022/10/01 03:22:06;;;;;;;23.25;14.52;;;;;;;;;;5028435;28;20107;-75
2022/10/01 03:24:32;;;;;;;22.73;14.43;;;;;;;;;;5012234;28;20028;-74
2022/10/01 03:26:58;;;;;;;25.08;14.77;;;;;;;;;;5030178;28;20025;-75
2022/10/01 03:29:24;;;;;;;22.75;14.05;;;;;;;;;;5030272;28;20501;-73
2022/10/01 03:31:50;;;;;;;23.23;14.13;;;;;;;;;;5028499;28;20523;-74
2022/10/01 03:34:16;;;;;;;23.02;14.05;;;;;;;;;;5028126;28;20025;-75
2022/10/01 03:36:42;;;;;;;24.08;13.88;;;;;;;;;;5028347;28;20021;-75
2022/10/01 03:39:07;;;;;;;23.50;13.55;;;;;;;;;;5028526;28;20033;-75
2022/10/01 03:41:33;;;;;;;21.65;13.00;;;;;;;;;;5028265;28;20116;-75
2022/10/01 03:43:58;;;;;;;26.13;13.75;;;;;;;;;;5029812;28;20025;-75
2022/10/01 03:46:25;;;;;;;23.25;13.98;;;;;;;;;;5028215;28;20030;-75
2022/10/01 03:48:51;;;;;;;20.45;13.57;;;;;;;;;;5029964;28;20025;-75
2022/10/01 03:51:19;;;;;;;21.13;13.07;;;;;;;;;;5029865;28;20801;-75
2022/10/01 03:53:48;;;;;;;26.73;13.55;;;;;;;;;;5029541;28;20041;-74
2022/10/01 03:56:14;;;;;;;22.67;13.38;;;;;;;;;;5027958;28;20482;-75
2022/10/01 03:58:40;;;;;;;22.52;12.57;;;;;;;;;;5029903;28;20031;-75
2022/10/01 04:01:05;;;;;;;23.23;14.68;;;;;;;;;;5027593;28;20108;-75
2022/10/01 04:03:31;;;;;;;26.10;12.90;;;;;;;;;;5027986;28;20147;-75
2022/10/01 04:05:57;;;;;;;23.60;13.35;;;;;;;;;;5029853;28;20037;-75
2022/10/01 04:08:22;;;;;;;22.48;13.18;;;;;;;;;;5027855;28;20119;-74
2022/10/01 04:10:48;;;;;;;22.23;12.50;;;;;;;;;;5011874;28;20029;-75
2022/10/01 04:13:14;;;;;;;22.05;12.75;;;;;;;;;;5027563;28;20113;-75
2022/10/01 04:15:40;;;;;;;21.17;12.82;;;;;;;;;;5028064;28;20104;-74
2022/10/01 04:18:07;;;;;;;19.27;12.13;;;;;;;;;;5029397;28;20109;-74
2022/10/01 04:20:34;;;;;;;19.83;12.00;;;;;;;;;;5027569;28;20029;-75
2022/10/01 04:22:59;;;;;;;19.23;11.88;;;;;;;;;;5027476;28;20060;-75
2022/10/01 04:25:26;;;;;;;18.77;12.85;;;;;;;;;;5028335;28;20037;-74
2022/10/01 04:28:00;;;;;;;19.30;12.50;;;;;;;;;;5031522;28;20525;-74
2022/10/01 04:30:28;;;;;;;19.92;12.00;;;;;;;;;;5032902;28;20073;-75
2022/10/01 04:32:54;;;;;;;23.75;12.65;;;;;;;;;;5031095;28;20109;-75
2022/10/01 04:35:20;;;;;;;19.45;12.23;;;;;;;;;;5031254;28;20045;-75
2022/10/01 04:37:46;;;;;;;22.95;12.77;;;;;;;;;;5033035;28;20362;-75
2022/10/01 04:40:12;;;;;;;20.55;11.32;;;;;;;;;;5031479;28;20095;-75
2022/10/01 04:42:40;;;;;;;19.08;11.80;;;;;;;;;;5031702;28;20037;-75
2022/10/01 04:45:07;;;;;;;21.15;11.65;;;;;;;;;;5033339;28;20025;-75
2022/10/01 04:47:33;;;;;;;23.40;12.25;;;;;;;;;;5015264;28;20033;-75
2022/10/01 04:49:58;;;;;;;24.17;13.07;;;;;;;;;;5033458;28;20095;-75
2022/10/01 04:52:24;;;;;;;17.63;11.73;;;;;;;;;;5032779;28;20025;-75
2022/10/01 04:54:51;;;;;;;20.10;12.30;;;;;;;;;;5033229;28;20030;-76
2022/10/01 04:57:20;;;;;;;19.63;12.77;;;;;;;;;;5031777;28;20022;-74
2022/10/01 04:59:46;;;;;;;18.92;11.88;;;;;;;;;;5031858;28;20044;-75
2022/10/01 05:02:12;;;;;;;20.40;11.93;;;;;;;;;;5033093;28;20032;-75
2022/10/01 05:04:38;;;;;;;20.90;11.90;;;;;;;;;;5033368;28;20385;-74
2022/10/01 05:07:04;;;;;;;22.25;11.98;;;;;;;;;;5031601;28;20026;-75
2022/10/01 05:09:29;;;;;;;20.20;12.95;;;;;;;;;;5033016;28;20258;-75
2022/10/01 05:11:55;;;;;;;21.33;12.45;;;;;;;;;;5031049;28;20029;-75
2022/10/01 05:14:20;;;;;;;23.23;12.70;;;;;;;;;;5031678;28;20037;-75
2022/10/01 05:16:46;;;;;;;25.63;13.52;;;;;;;;;;5030990;28;20108;-75
2022/10/01 05:19:12;;;;;;;19.50;11.73;;;;;;;;;;5030535;28;20103;-75
2022/10/01 05:21:37;;;;;;;22.98;12.98;;;;;;;;;;5032392;28;20434;-74
2022/10/01 05:24:04;;;;;;;19.27;12.10;;;;;;;;;;5032844;28;20033;-75
2022/10/01 05:26:30;;;;;;;25.05;13.70;;;;;;;;;;5033974;28;20056;-75
2022/10/01 05:28:58;;;;;;;21.73;12.38;;;;;;;;;;5052494;28;20100;-75
2022/10/01 05:31:23;;;;;;;20.40;12.10;;;;;;;;;;5052774;28;20027;-75
2022/10/01 05:33:49;;;;;;;24.45;12.48;;;;;;;;;;5033713;28;20025;-75
2022/10/01 05:36:14;;;;;;;20.05;12.73;;;;;;;;;;5050191;28;20506;-74
2022/10/01 05:38:41;;;;;;;22.70;12.02;;;;;;;;;;5049421;28;20685;-75
2022/10/01 05:41:07;;;;;;;20.70;12.20;;;;;;;;;;5050521;28;20053;-75
2022/10/01 05:43:32;;;;;;;31.08;17.45;;;;;;;;;;5051819;28;20068;-76
2022/10/01 05:46:02;;;;;;;23.80;12.55;;;;;;;;;;5050977;28;20107;-76
2022/10/01 05:48:27;;;;;;;21.95;13.73;;;;;;;;;;5051831;28;20048;-74
2022/10/01 05:50:53;;;;;;;21.98;13.15;;;;;;;;;;5034325;28;20498;-75
2022/10/01 05:53:19;;;;;;;18.80;12.65;;;;;;;;;;5050358;28;20033;-75
2022/10/01 05:55:44;;;;;;;21.23;11.48;;;;;;;;;;5033745;28;20021;-74
2022/10/01 05:58:12;;;;;;;24.83;13.15;;;;;;;;;;5051505;28;20463;-75
2022/10/01 06:00:40;;;;;;;21.95;11.98;;;;;;;;;;5050329;28;20029;-75
2022/10/01 06:03:06;;;;;;;21.92;12.63;;;;;;;;;;5051770;28;20029;-75
2022/10/01 06:05:33;;;;;;;18.67;12.02;;;;;;;;;;5051793;28;20041;-77
2022/10/01 06:07:59;;;;;;;20.40;13.30;;;;;;;;;;5049744;28;20024;-77
2022/10/01 06:10:29;;;;;;;22.63;12.85;;;;;;;;;;5050170;28;20071;-78
2022/10/01 06:13:01;;;;;;;18.35;11.90;;;;;;;;;;5049370;28;20049;-78
2022/10/01 06:15:30;;;;;;;21.50;12.27;;;;;;;;;;5048755;28;20083;-78
2022/10/01 06:18:00;;;;;;;24.83;12.90;;;;;;;;;;5049528;28;20039;-79
2022/10/01 06:20:25;;;;;;;26.05;14.57;;;;;;;;;;5050702;28;20036;-77
2022/10/01 06:22:55;;;;;;;17.88;11.52;;;;;;;;;;5050939;28;20119;-78
2022/10/01 06:25:21;;;;;;;19.85;11.23;;;;;;;;;;5036345;28;20055;-78
2022/10/01 06:27:56;;;;;;;19.13;12.55;;;;;;;;;;5029140;28;20414;-79
2022/10/01 06:30:23;;;;;;;18.88;11.23;;;;;;;;;;5012436;28;20037;-77
2022/10/01 06:32:49;;;;;;;22.95;11.52;;;;;;;;;;5030176;28;20060;-79
2022/10/01 06:35:14;;;;;;;18.08;11.02;;;;;;;;;;5028941;28;20113;-77
2022/10/01 06:37:40;;;;;;;18.08;10.65;;;;;;;;;;5029230;28;20033;-78
2022/10/01 06:40:06;;;;;;;21.05;12.35;;;;;;;;;;5030288;28;20084;-77
2022/10/01 06:42:31;;;;;;;16.10;11.15;;;;;;;;;;5030475;28;20041;-78
2022/10/01 06:44:57;;;;;;;15.80;10.43;;;;;;;;;;5029035;28;20036;-78
2022/10/01 06:47:22;;;;;;;19.67;10.55;;;;;;;;;;5030392;28;20041;-77
2022/10/01 06:49:48;;;;;;;21.25;11.00;;;;;;;;;;5012278;28;20029;-78
2022/10/01 06:55:00;;;;;;;21.77;10.98;;;;;;;;;;5030663;28;20079;-78
2022/10/01 06:57:27;;;;;;;18.95;11.55;;;;;;;;;;5030170;28;20018;-77
2022/10/01 06:59:52;;;;;;;18.38;10.65;;;;;;;;;;5028835;28;20688;-77
2022/10/01 07:02:27;;;;;;;23.60;10.52;;;;;;;;;;5030320;28;20057;-76
2022/10/01 07:04:57;;;;;;;16.92;11.02;;;;;;;;;;5029308;28;20079;-75
2022/10/01 07:07:44;;;;;;;16.02;10.70;;;;;;;;;;5028747;28;20037;-75
2022/10/01 07:10:10;;;;;;;19.02;10.38;;;;;;;;;;5012381;28;20106;-74
2022/10/01 07:12:37;;;;;;;16.08;10.68;;;;;;;;;;5030228;28;20027;-75
2022/10/01 07:15:04;;;;;;;16.40;10.30;;;;;;;;;;5029046;28;20026;-75
2022/10/01 07:17:31;;;;;;;22.77;10.73;;;;;;;;;;5029933;28;20025;-76
2022/10/01 07:19:56;;;;;;;18.48;10.18;;;;;;;;;;5030011;28;20029;-74
2022/10/01 07:22:23;;;;;;;16.45;9.15;;;;;;;;;;5012123;28;20032;-76
2022/10/01 07:24:50;;;;;;;18.98;10.52;;;;;;;;;;5029748;28;20017;-76
2022/10/01 07:27:17;;;;;;;15.27;9.07;;;;;;;;;;5028973;28;20025;-76
2022/10/01 07:29:44;;;;;;;20.13;9.40;;;;;;;;;;5029814;28;20493;-75
2022/10/01 07:32:10;;;;;;;13.63;8.88;;;;;;;;;;5011667;28;20098;-75
2022/10/01 07:34:39;;;;;;;16.63;8.95;;;;;;;;;;5011412;28;20116;-75
2022/10/01 07:37:05;;;;;;;14.25;8.40;;;;;;;;;;5028099;28;20026;-76
2022/10/01 07:39:31;;;;;;;12.95;8.10;;;;;;;;;;5011773;28;20069;-76
2022/10/01 07:41:57;;;;;;;14.32;9.30;;;;;;;;;;5028936;28;20044;-76
2022/10/01 07:44:23;;;;;;;12.73;8.27;;;;;;;;;;5028929;28;20040;-75
2022/10/01 07:46:49;;;;;;;13.15;8.02;;;;;;;;;;5012546;28;20461;-77
2022/10/01 07:49:15;;;;;;;13.35;7.68;;;;;;;;;;5028849;28;20075;-76
2022/10/01 07:51:42;;;;;;;13.38;6.95;;;;;;;;;;5028286;28;20040;-76
2022/10/01 07:54:08;;;;;;;10.82;7.40;;;;;;;;;;5011576;28;20063;-76
2022/10/01 07:56:34;;;;;;;11.38;7.15;;;;;;;;;;5029662;28;20034;-76
2022/10/01 07:59:00;;;;;;;9.75;6.53;;;;;;;;;;5011703;28;20030;-76
2022/10/01 08:01:26;;;;;;;12.70;7.40;;;;;;;;;;5032360;28;20425;-75
2022/10/01 08:03:51;;;;;;;10.23;6.70;;;;;;;;;;5018046;28;20031;-78
2022/10/01 08:06:18;;;;;;;9.48;6.22;;;;;;;;;;5018314;28;20492;-76
2022/10/01 08:08:44;;;;;;;9.77;6.72;;;;;;;;;;5034718;28;20022;-76
2022/10/01 08:11:12;;;;;;;11.23;5.90;;;;;;;;;;5018301;28;20326;-77
2022/10/01 08:13:38;;;;;;;9.20;6.18;;;;;;;;;;5018239;28;20021;-76
2022/10/01 08:16:06;;;;;;;9.35;7.03;;;;;;;;;;5035598;28;20146;-75
2022/10/01 08:18:32;;;;;;;9.35;6.82;;;;;;;;;;5035785;28;20029;-76
2022/10/01 08:21:00;;;;;;;8.60;7.07;;;;;;;;;;5018246;28;20343;-76
2022/10/01 08:23:27;;;;;;;11.43;6.63;;;;;;;;;;5036262;28;20140;-77
2022/10/01 08:25:58;;;;;;;9.00;6.20;;;;;;;;;;5035624;28;20047;-76
2022/10/01 08:28:24;;;;;;;10.85;6.30;;;;;;;;;;5055963;28;20100;-76
2022/10/01 08:30:49;;;;;;;10.77;6.25;;;;;;;;;;5054981;28;20537;-76
2022/10/01 08:33:15;;;;;;;10.05;6.30;;;;;;;;;;5054888;28;20337;-78
2022/10/01 08:35:42;;;;;;;8.55;5.25;;;;;;;;;;5054583;28;20029;-78
2022/10/01 08:38:08;;;;;;;8.10;5.72;;;;;;;;;;5038165;28;20032;-77
2022/10/01 08:40:41;;;;;;;10.98;6.28;;;;;;;;;;5054079;28;20053;-76
2022/10/01 08:43:26;;;;;;;6.40;4.80;;;;;;;;;;5055953;28;20096;-77
2022/10/01 08:45:54;;;;;;;6.90;5.43;;;;;;;;;;5055872;28;20153;-77
2022/10/01 08:48:44;;;;;;;7.00;4.97;;;;;;;;;;5055950;28;20150;-77
2022/10/01 08:51:18;;;;;;;7.00;4.97;;;;;;;;;;5056454;28;20585;-76
2022/10/01 08:54:16;;;;;;;5.88;4.75;;;;;;;;;;5055944;28;20033;-77
2022/10/01 08:56:45;;;;;;;9.02;4.38;;;;;;;;;;5053895;28;20045;-76
2022/10/01 08:59:31;;;;;;;6.82;4.82;;;;;;;;;;5055658;28;20369;-76
2022/10/01 09:01:58;;;;;;;7.15;5.13;;;;;;;;;;5054388;28;20025;-77
2022/10/01 09:04:24;;;;;;;6.40;4.45;;;;;;;;;;5055811;28;20021;-76
2022/10/01 09:07:00;;;;;;;7.65;4.63;;;;;;;;;;5055572;28;20021;-76
2022/10/01 09:10:04;;;;;;;7.18;4.15;;;;;;;;;;5054133;28;20029;-76
2022/10/01 09:12:45;;;;;;;6.55;4.68;;;;;;;;;;5052216;28;20397;-77
2022/10/01 09:15:20;;;;;;;5.50;3.93;;;;;;;;;;5051235;28;20033;-77
2022/10/01 09:18:12;;;;;;;6.47;4.55;;;;;;;;;;5034347;28;20764;-75
2022/10/01 09:20:44;;;;;;;7.68;5.25;;;;;;;;;;5052239;28;20040;-76
2022/10/01 09:23:16;;;;;;;5.78;4.43;;;;;;;;;;5052867;28;20029;-76
2022/10/01 09:25:44;;;;;;;8.88;4.93;;;;;;;;;;5050425;28;20373;-76
2022/10/01 09:28:19;;;;;;;8.38;4.55;;;;;;;;;;5052342;28;20040;-75
2022/10/01 09:30:56;;;;;;;7.00;4.85;;;;;;;;;;5050017;28;20036;-76
2022/10/01 09:33:27;;;;;;;9.45;4.70;;;;;;;;;;5050345;28;20032;-76
2022/10/01 09:36:04;;;;;;;8.85;4.88;;;;;;;;;;5052106;28;20021;-77
2022/10/01 09:38:40;;;;;;;9.23;4.75;;;;;;;;;;5051990;28;20469;-77
2022/10/01 09:41:07;;;;;;;8.57;4.43;;;;;;;;;;5050491;28;20485;-77
2022/10/01 09:43:36;;;;;;;7.00;4.25;;;;;;;;;;5050211;28;20029;-77
2022/10/01 09:46:05;;;;;;;6.35;4.28;;;;;;;;;;5050184;28;20032;-76
2022/10/01 09:48:45;;;;;;;8.48;4.28;;;;;;;;;;5049800;28;20449;-77
2022/10/01 09:51:16;;;;;;;6.88;4.07;;;;;;;;;;5051803;28;20025;-77
2022/10/01 09:54:02;;;;;;;5.20;4.32;;;;;;;;;;5033628;28;20041;-77
2022/10/01 09:56:32;;;;;;;9.65;4.30;;;;;;;;;;5051619;28;20594;-78
2022/10/01 09:59:04;;;;;;;7.38;4.63;;;;;;;;;;5051792;28;20063;-77
2022/10/01 10:01:43;;;;;;;10.32;4.13;;;;;;;;;;5049890;28;20029;-76
2022/10/01 10:04:10;;;;;;;9.82;4.53;;;;;;;;;;5051175;28;20032;-77
2022/10/01 10:06:37;;;;;;;5.97;3.95;;;;;;;;;;5050635;28;20029;-76
2022/10/01 10:09:03;;;;;;;6.47;4.10;;;;;;;;;;5051150;28;20021;-78
2022/10/01 10:11:30;;;;;;;6.97;4.63;;;;;;;;;;5049799;28;20481;-77
2022/10/01 10:14:03;;;;;;;6.32;4.18;;;;;;;;;;5049424;28;20111;-77
2022/10/01 10:16:46;;;;;;;7.35;2.85;;;;;;;;;;5050728;28;20025;-76
2022/10/01 10:19:22;;;;;;;5.25;3.00;;;;;;;;;;5049720;28;20037;-77
2022/10/01 10:21:59;;;;;;;6.50;2.75;;;;;;;;;;5050833;28;20016;-77
2022/10/01 10:24:32;;;;;;;6.28;2.47;;;;;;;;;;5044112;28;20092;-76
2022/10/01 10:27:00;;;;;;;6.25;2.60;;;;;;;;;;5031489;28;20037;-75
2022/10/01 10:29:26;;;;;;;3.35;2.40;;;;;;;;;;5014211;28;20026;-76
2022/10/01 10:31:54;;;;;;;4.00;2.63;;;;;;;;;;5013049;28;20041;-76
2022/10/01 10:34:37;;;;;;;5.00;2.85;;;;;;;;;;5012982;28;20121;-76
2022/10/01 10:37:05;;;;;;;8.27;2.85;;;;;;;;;;5012853;28;20535;-76
2022/10/01 10:39:38;;;;;;;4.55;2.58;;;;;;;;;;5030803;28;20039;-77
2022/10/01 10:42:04;;;;;;;;;;;;;;;;;;5041452;28;20029;-77
2022/10/01 10:44:34;;;;;;;6.90;3.78;;;;;;;;;;5039921;28;20577;-77
2022/10/01 10:47:04;;;;;;;4.47;3.20;;;;;;;;;;5026400;28;20024;-77
2022/10/01 10:49:43;;;;;;;5.78;2.78;;;;;;;;;;5044319;28;20451;-75
2022/10/01 10:52:22;;;;;;;5.82;3.30;;;;;;;;;;5040850;28;20039;-75
2022/10/01 10:54:51;;;;;;;3.88;3.35;;;;;;;;;;5032934;28;20483;-75
2022/10/01 10:57:33;;;;;;;5.88;3.17;;;;;;;;;;5051397;28;20025;-76
2022/10/01 11:00:16;;;;;;;5.25;3.00;;;;;;;;;;5034536;28;20060;-77
2022/10/01 11:03:13;;;;;;;3.88;2.30;;;;;;;;;;5043503;28;20029;-77
2022/10/01 11:05:41;;;;;;;3.13;1.30;;;;;;;;;;5013186;28;20033;-76
2022/10/01 11:08:10;;;;;;;1.33;1.20;;;;;;;;;;5030399;28;20103;-76
2022/10/01 11:10:57;;;;;;;2.22;1.50;;;;;;;;;;5014086;28;20075;-76
2022/10/01 11:13:34;;;;;;;2.08;1.55;;;;;;;;;;5038297;28;20155;-77
2022/10/01 11:16:27;;;;;;;1.60;1.40;;;;;;;;;;5045890;28;20060;-76
2022/10/01 11:19:04;;;;;;;4.65;1.52;;;;;;;;;;5046496;28;20021;-76
2022/10/01 11:21:47;;;;;;;6.88;1.40;;;;;;;;;;5031726;28;20056;-77
2022/10/01 11:24:31;;;;;;;2.05;1.60;;;;;;;;;;5039667;28;20045;-77
2022/10/01 11:27:17;;;;;;;2.95;1.60;;;;;;;;;;5028560;28;20727;-76
2022/10/01 11:29:54;;;;;;;3.25;2.00;;;;;;;;;;5042853;28;20020;-76
2022/10/01 11:32:44;;;;;;;2.60;1.88;;;;;;;;;;5047659;28;20504;-77
2022/10/01 11:35:33;;;;;;;2.95;1.77;;;;;;;;;;5045373;28;20036;-76
2022/10/01 11:38:29;;;;;;;2.00;1.48;;;;;;;;;;5048280;28;20052;-77
2022/10/01 11:41:05;;;;;;;4.13;1.98;;;;;;;;;;5047402;28;20067;-77
2022/10/01 11:43:35;;;;;;;1.27;1.15;;;;;;;;;;5049859;28;20024;-78
2022/10/01 11:46:41;;;;;;;3.22;1.55;;;;;;;;;;5050466;28;20519;-77
2022/10/01 11:49:42;;;;;;;9.98;4.45;;;;;;;;;;5043179;28;20033;-77
2022/10/01 11:52:36;;;;;;;2.22;1.60;;;;;;;;;;5048502;28;20564;-77
2022/10/01 12:00:57;;;;;;;3.83;2.00;;;;;;;;;;5049455;28;20555;-77
2022/10/01 12:03:28;;;;;;;3.28;1.60;;;;;;;;;;5048012;28;20386;-76
2022/10/01 12:05:56;;;;;;;2.30;2.10;;;;;;;;;;5031331;28;20029;-77
2022/10/01 12:08:28;;;;;;;2.38;1.67;;;;;;;;;;5047771;28;20296;-75
2022/10/01 12:11:19;;;;;;;5.82;2.63;;;;;;;;;;5047684;28;20025;-77
2022/10/01 12:14:02;;;;;;;2.63;1.95;;;;;;;;;;5036538;28;20404;-77
2022/10/01 12:16:39;;;;;;;2.88;2.00;;;;;;;;;;5047836;28;20029;-76
2022/10/01 12:19:20;;;;;;;5.55;2.10;;;;;;;;;;5047549;28;20116;-76
2022/10/01 12:22:09;;;;;;;4.50;2.08;;;;;;;;;;5029342;28;20037;-76
2022/10/01 12:24:39;;;;;;;6.13;2.10;;;;;;;;;;5034311;28;20108;-77
2022/10/01 12:27:29;;;;;;;2.47;2.08;;;;;;;;;;5047963;28;20730;-76
2022/10/01 12:30:01;;;;;;;4.18;2.35;;;;;;;;;;5048316;28;20094;-77
2022/10/01 12:33:04;;;;;;;2.42;1.98;;;;;;;;;;5048690;28;20025;-76
2022/10/01 12:36:02;;;;;;;3.13;2.10;;;;;;;;;;5048714;28;20096;-77
2022/10/01 12:38:39;;;;;;;3.85;2.22;;;;;;;;;;5047957;28;20028;-76
2022/10/01 12:41:42;;;;;;;2.63;1.73;;;;;;;;;;5029698;28;20079;-75
2022/10/01 12:44:26;;;;;;;4.57;2.67;;;;;;;;;;5046607;28;20492;-76
2022/10/01 12:47:13;;;;;;;5.20;2.88;;;;;;;;;;5049995;28;20021;-76
2022/10/01 12:50:19;;;;;;;4.95;2.65;;;;;;;;;;5051011;28;20029;-75
2022/10/01 12:53:07;;;;;;;4.10;2.70;;;;;;;;;;5048775;28;20063;-75
2022/10/01 12:55:33;;;;;;;4.47;2.72;;;;;;;;;;5031445;28;20919;-77
2022/10/01 12:58:17;;;;;;;4.85;3.03;;;;;;;;;;5032852;28;20358;-76
2022/10/01 13:00:53;;;;;;;2.72;2.50;;;;;;;;;;5031528;28;20053;-76
2022/10/01 13:03:46;;;;;;;4.18;3.13;;;;;;;;;;5032961;28;20017;-75
2022/10/01 13:06:21;;;;;;;6.78;2.90;;;;;;;;;;5031256;28;20458;-76
2022/10/01 13:08:53;;;;;;;4.90;2.33;;;;;;;;;;5031119;28;20498;-76
2022/10/01 13:11:35;;;;;;;4.82;4.03;;;;;;;;;;5032633;28;20017;-75
2022/10/01 13:14:03;;;;;;;4.65;2.63;;;;;;;;;;5025805;28;20324;-75
2022/10/01 13:16:28;;;;;;;4.38;2.83;;;;;;;;;;5032487;28;20030;-75
2022/10/01 13:19:07;;;;;;;5.38;3.33;;;;;;;;;;5048734;28;20037;-76
2022/10/01 13:21:39;;;;;;;5.65;3.30;;;;;;;;;;5051970;28;20025;-76
2022/10/01 13:24:16;;;;;;;;;;;;;;;;;;5049457;28;20060;-75
2022/10/01 13:26:56;;;;;;;3.65;2.60;;;;;;;;;;5031416;28;20012;-76
2022/10/01 13:29:43;;;;;;;2.80;2.17;;;;;;;;;;5032490;28;20032;-76
2022/10/01 13:32:32;;;;;;;3.80;2.10;;;;;;;;;;5038736;28;20063;-76
2022/10/01 13:35:20;;;;;;;5.43;2.50;;;;;;;;;;5014005;28;20026;-76
2022/10/01 13:37:46;;;;;;;3.92;2.45;;;;;;;;;;5031260;28;20433;-75
2022/10/01 13:40:22;;;;;;;5.47;2.58;;;;;;;;;;5031818;28;20053;-75
2022/10/01 13:42:49;;;;;;;4.80;2.38;;;;;;;;;;5048580;28;20029;-76
2022/10/01 13:45:42;;;;;;;5.03;2.42;;;;;;;;;;5050459;28;20035;-75
2022/10/01 13:48:22;;;;;;;5.78;3.03;;;;;;;;;;5048656;28;20113;-75
2022/10/01 13:51:03;;;;;;;8.43;2.65;;;;;;;;;;5050945;28;20056;-76
2022/10/01 13:53:46;;;;;;;4.32;3.05;;;;;;;;;;5050143;28;20025;-75
2022/10/01 13:56:31;;;;;;;3.38;2.67;;;;;;;;;;5051746;28;20397;-75
2022/10/01 13:58:56;;;;;;;13.90;3.13;;;;;;;;;;5032839;28;20048;-76
2022/10/01 14:01:22;;;;;;;2.90;2.50;;;;;;;;;;5040674;28;20064;-76
2022/10/01 14:03:55;;;;;;;5.22;2.67;;;;;;;;;;5041478;28;20024;-76
2022/10/01 14:06:36;;;;;;;5.07;2.38;;;;;;;;;;5050583;28;20017;-76
2022/10/01 14:09:18;;;;;;;3.05;2.40;;;;;;;;;;5048929;28;20468;-74
2022/10/01 14:17:28;;;;;;;3.35;1.95;;;;;;;;;;5051457;28;20086;-75
2022/10/01 14:19:53;;;;;;;3.25;1.83;;;;;;;;;;5050698;28;20534;-77
2022/10/01 14:22:31;;;;;;;3.30;2.15;;;;;;;;;;5033198;28;20025;-76
2022/10/01 14:25:27;;;;;;;4.22;1.92;;;;;;;;;;5041588;28;20466;-75
2022/10/01 14:28:11;;;;;;;3.03;1.60;;;;;;;;;;5029401;28;20033;-76
2022/10/01 14:30:53;;;;;;;2.78;2.13;;;;;;;;;;5029245;28;20053;-76
2022/10/01 14:33:42;;;;;;;2.25;1.40;;;;;;;;;;5031335;28;20069;-75
2022/10/01 14:36:28;;;;;;;2.85;1.80;;;;;;;;;;5029003;28;20040;-76
2022/10/01 14:39:24;;;;;;;3.20;2.10;;;;;;;;;;5030968;28;20144;-76
2022/10/01 14:41:53;;;;;;;2.67;1.63;;;;;;;;;;5013021;28;20053;-75
2022/10/01 14:44:40;;;;;;;2.65;1.73;;;;;;;;;;5030623;28;20025;-76
2022/10/01 14:47:20;;;;;;;1.88;1.55;;;;;;;;;;5030300;28;20033;-76
2022/10/01 14:49:46;;;;;;;2.20;1.73;;;;;;;;;;5028866;28;20394;-76
2022/10/01 14:52:22;;;;;;;3.47;1.58;;;;;;;;;;5029416;28;20037;-75
2022/10/01 14:54:57;;;;;;;3.58;1.45;;;;;;;;;;5030302;28;20037;-75
2022/10/01 14:57:29;;;;;;;3.28;1.88;;;;;;;;;;5030883;28;20025;-75
2022/10/01 14:59:57;;;;;;;3.20;1.90;;;;;;;;;;5030517;28;20478;-76
2022/10/01 15:02:25;;;;;;;2.65;1.70;;;;;;;;;;5012792;28;20037;-75
2022/10/01 15:04:54;;;;;;;5.65;1.67;;;;;;;;;;5029734;28;20397;-75
2022/10/01 15:07:20;;;;;;;2.83;1.70;;;;;;;;;;5028829;28;20033;-77
2022/10/01 15:09:47;;;;;;;3.58;1.92;;;;;;;;;;5028104;28;20088;-75
2022/10/01 15:12:15;;;;;;;3.65;1.50;;;;;;;;;;5028478;28;20060;-75
2022/10/01 15:14:42;;;;;;;3.58;2.00;;;;;;;;;;5028093;28;20098;-76